sensor_id;sensor_type;location;lat;lon;timestamp;temperature;humidity
8676;DHT22;4375;52.486;13.424;2023-08-17T08:40:37;26.20;99.90
8676;DHT22;4375;52.486;13.424;2023-08-17T08:43:03;25.50;99.90
8676;DHT22;4375;52.486;13.424;2023-08-17T08:45:29;25.20;99.90
8676;DHT22;4375;52.486;13.424;2023-08-17T08:47:57;25.10;99.90
8676;DHT22;4375;52.486;13.424;2023-08-17T08:50:25;25.00;99.90
8676;DHT22;4375;52.486;13.424;2023-08-17T08:53:02;24.80;99.90
8676;DHT22;4375;52.486;13.424;2023-08-17T08:55:34;24.60;99.90
8676;DHT22;4375;52.486;13.424;2023-08-17T08:58:00;24.00;99.90
8676;DHT22;4375;52.486;13.424;2023-08-17T09:00:26;24.00;99.90
8676;DHT22;4375;52.486;13.424;2023-08-17T09:02:53;23.90;99.90
8676;DHT22;4375;52.486;13.424;2023-08-17T09:05:19;23.50;99.90
8676;DHT22;4375;52.486;13.424;2023-08-17T09:07:46;23.20;99.90
8676;DHT22;4375;52.486;13.424;2023-08-17T09:10:13;23.20;99.90
8676;DHT22;4375;52.486;13.424;2023-08-17T09:12:41;23.10;99.90
8676;DHT22;4375;52.486;13.424;2023-08-17T09:15:07;23.20;99.90
8676;DHT22;4375;52.486;13.424;2023-08-17T09:17:33;23.10;99.90
8676;DHT22;4375;52.486;13.424;2023-08-17T09:20:02;23.10;99.90
8676;DHT22;4375;52.486;13.424;2023-08-17T09:22:39;23.10;99.90
8676;DHT22;4375;52.486;13.424;2023-08-17T09:25:06;23.20;99.90
8676;DHT22;4375;52.486;13.424;2023-08-17T09:27:32;23.40;99.90
8676;DHT22;4375;52.486;13.424;2023-08-17T09:30:06;23.60;99.90
8676;DHT22;4375;52.486;13.424;2023-08-17T09:32:32;24.00;99.90
8676;DHT22;4375;52.486;13.424;2023-08-17T09:35:05;24.00;99.90
8676;DHT22;4375;52.486;13.424;2023-08-17T09:37:34;24.20;99.90
8676;DHT22;4375;52.486;13.424;2023-08-17T09:40:00;24.20;99.90
8676;DHT22;4375;52.486;13.424;2023-08-17T09:42:26;24.10;99.90
8676;DHT22;4375;52.486;13.424;2023-08-17T09:44:53;24.30;99.90
8676;DHT22;4375;52.486;13.424;2023-08-17T09:47:19;24.40;99.90
8676;DHT22;4375;52.486;13.424;2023-08-17T09:49:53;24.60;99.90
8676;DHT22;4375;52.486;13.424;2023-08-17T09:52:22;24.80;99.90
8676;DHT22;4375;52.486;13.424;2023-08-17T09:54:49;24.70;99.90
8676;DHT22;4375;52.486;13.424;2023-08-17T09:57:17;24.80;99.90
8676;DHT22;4375;52.486;13.424;2023-08-17T09:59:43;25.20;99.90
8676;DHT22;4375;52.486;13.424;2023-08-17T10:02:19;25.30;99.90
8676;DHT22;4375;52.486;13.424;2023-08-17T10:04:49;25.30;99.90
8676;DHT22;4375;52.486;13.424;2023-08-17T10:07:21;25.20;99.90
8676;DHT22;4375;52.486;13.424;2023-08-17T10:10:00;25.00;99.90
8676;DHT22;4375;52.486;13.424;2023-08-17T10:12:28;24.90;99.90
8676;DHT22;4375;52.486;13.424;2023-08-17T10:15:02;24.60;99.90
8676;DHT22;4375;52.486;13.424;2023-08-17T10:17:34;24.80;99.90
8676;DHT22;4375;52.486;13.424;2023-08-17T10:20:01;24.50;99.90
8676;DHT22;4375;52.486;13.424;2023-08-17T10:25:09;24.10;99.90
8676;DHT22;4375;52.486;13.424;2023-08-17T10:27:37;23.80;99.90
8676;DHT22;4375;52.486;13.424;2023-08-17T10:30:03;23.70;99.90
8676;DHT22;4375;52.486;13.424;2023-08-17T10:32:29;23.70;99.90
8676;DHT22;4375;52.486;13.424;2023-08-17T10:34:57;23.80;99.90
8676;DHT22;4375;52.486;13.424;2023-08-17T10:37:24;24.20;99.90
8676;DHT22;4375;52.486;13.424;2023-08-17T10:39:50;24.50;99.90
8676;DHT22;4375;52.486;13.424;2023-08-17T10:42:33;24.80;99.90
8676;DHT22;4375;52.486;13.424;2023-08-17T10:44:59;25.00;99.90
8676;DHT22;4375;52.486;13.424;2023-08-17T10:47:28;25.00;99.90
8676;DHT22;4375;52.486;13.424;2023-08-17T10:50:06;25.10;99.90
8676;DHT22;4375;52.486;13.424;2023-08-17T10:52:44;25.20;99.90
8676;DHT22;4375;52.486;13.424;2023-08-17T10:55:09;25.20;99.90
8676;DHT22;4375;52.486;13.424;2023-08-17T10:57:40;25.20;99.90
8676;DHT22;4375;52.486;13.424;2023-08-17T11:00:21;25.00;99.90
8676;DHT22;4375;52.486;13.424;2023-08-17T11:03:07;25.00;99.90
8676;DHT22;4375;52.486;13.424;2023-08-17T11:08:34;25.00;99.90
8676;DHT22;4375;52.486;13.424;2023-08-17T11:11:05;24.50;99.90
8676;DHT22;4375;52.486;13.424;2023-08-17T11:13:35;24.30;99.90
8676;DHT22;4375;52.486;13.424;2023-08-17T11:16:01;24.20;99.90
8676;DHT22;4375;52.486;13.424;2023-08-17T11:18:27;24.10;99.90
8676;DHT22;4375;52.486;13.424;2023-08-17T11:20:54;24.30;99.90
8676;DHT22;4375;52.486;13.424;2023-08-17T11:23:20;24.30;99.90
8676;DHT22;4375;52.486;13.424;2023-08-17T11:25:46;24.40;99.90
8676;DHT22;4375;52.486;13.424;2023-08-17T11:28:13;24.40;99.90
8676;DHT22;4375;52.486;13.424;2023-08-17T11:30:40;24.60;99.90
8676;DHT22;4375;52.486;13.424;2023-08-17T11:33:06;24.50;99.90
8676;DHT22;4375;52.486;13.424;2023-08-17T11:35:32;24.60;99.90
8676;DHT22;4375;52.486;13.424;2023-08-17T11:37:58;24.70;99.90
8676;DHT22;4375;52.486;13.424;2023-08-17T11:40:25;25.00;99.90
8676;DHT22;4375;52.486;13.424;2023-08-17T11:42:51;25.10;99.90
8676;DHT22;4375;52.486;13.424;2023-08-17T11:45:18;25.40;99.90
8676;DHT22;4375;52.486;13.424;2023-08-17T11:47:43;25.50;99.90
8676;DHT22;4375;52.486;13.424;2023-08-17T11:50:10;25.40;99.90
8676;DHT22;4375;52.486;13.424;2023-08-17T11:52:36;25.40;99.90
8676;DHT22;4375;52.486;13.424;2023-08-17T11:55:03;25.30;99.90
8676;DHT22;4375;52.486;13.424;2023-08-17T11:57:31;25.50;99.90
8676;DHT22;4375;52.486;13.424;2023-08-17T11:59:58;25.60;99.90
8676;DHT22;4375;52.486;13.424;2023-08-17T12:02:24;25.70;99.90
8676;DHT22;4375;52.486;13.424;2023-08-17T12:04:51;25.80;99.90
8676;DHT22;4375;52.486;13.424;2023-08-17T12:07:17;25.90;99.90
8676;DHT22;4375;52.486;13.424;2023-08-17T12:09:44;26.10;99.90
8676;DHT22;4375;52.486;13.424;2023-08-17T12:12:11;26.00;99.90
8676;DHT22;4375;52.486;13.424;2023-08-17T12:14:40;26.00;99.90
8676;DHT22;4375;52.486;13.424;2023-08-17T12:17:06;26.10;99.90
8676;DHT22;4375;52.486;13.424;2023-08-17T12:19:31;26.30;99.90
8676;DHT22;4375;52.486;13.424;2023-08-17T12:21:57;26.40;99.90
8676;DHT22;4375;52.486;13.424;2023-08-17T12:24:26;26.40;99.90
8676;DHT22;4375;52.486;13.424;2023-08-17T12:26:52;26.20;99.90
8676;DHT22;4375;52.486;13.424;2023-08-17T12:29:22;26.50;99.90
8676;DHT22;4375;52.486;13.424;2023-08-17T12:31:48;26.50;99.90
8676;DHT22;4375;52.486;13.424;2023-08-17T12:34:13;26.10;99.90
8676;DHT22;4375;52.486;13.424;2023-08-17T12:36:39;25.60;99.90
8676;DHT22;4375;52.486;13.424;2023-08-17T12:39:08;25.90;99.90
8676;DHT22;4375;52.486;13.424;2023-08-17T12:41:33;26.30;99.90
8676;DHT22;4375;52.486;13.424;2023-08-17T12:44:00;26.20;99.90
8676;DHT22;4375;52.486;13.424;2023-08-17T12:46:26;25.90;99.90
8676;DHT22;4375;52.486;13.424;2023-08-17T12:48:52;26.00;99.90
8676;DHT22;4375;52.486;13.424;2023-08-17T12:51:17;26.10;99.90
8676;DHT22;4375;52.486;13.424;2023-08-17T12:53:43;26.30;99.90
8676;DHT22;4375;52.486;13.424;2023-08-17T12:56:09;26.40;99.90
8676;DHT22;4375;52.486;13.424;2023-08-17T12:58:34;26.30;99.90
8676;DHT22;4375;52.486;13.424;2023-08-17T13:01:00;26.30;99.90
8676;DHT22;4375;52.486;13.424;2023-08-17T13:03:25;26.10;99.90
8676;DHT22;4375;52.486;13.424;2023-08-17T13:05:51;25.90;99.90
8676;DHT22;4375;52.486;13.424;2023-08-17T13:08:17;26.00;99.90
8676;DHT22;4375;52.486;13.424;2023-08-17T13:10:42;26.10;99.90
8676;DHT22;4375;52.486;13.424;2023-08-17T13:13:08;26.00;99.90
8676;DHT22;4375;52.486;13.424;2023-08-17T13:15:34;26.20;99.90
8676;DHT22;4375;52.486;13.424;2023-08-17T13:17:59;26.30;99.90
8676;DHT22;4375;52.486;13.424;2023-08-17T13:20:26;26.30;99.90
8676;DHT22;4375;52.486;13.424;2023-08-17T13:22:52;26.20;99.90
8676;DHT22;4375;52.486;13.424;2023-08-17T13:25:17;26.30;99.90
8676;DHT22;4375;52.486;13.424;2023-08-17T13:27:43;26.30;99.90
8676;DHT22;4375;52.486;13.424;2023-08-17T13:30:09;26.20;99.90
8676;DHT22;4375;52.486;13.424;2023-08-17T13:32:35;26.20;99.90
8676;DHT22;4375;52.486;13.424;2023-08-17T13:35:03;26.10;99.90
8676;DHT22;4375;52.486;13.424;2023-08-17T13:37:29;26.00;99.90
8676;DHT22;4375;52.486;13.424;2023-08-17T13:39:55;26.10;99.90
8676;DHT22;4375;52.486;13.424;2023-08-17T13:42:21;26.20;99.90
8676;DHT22;4375;52.486;13.424;2023-08-17T13:44:46;26.20;99.90
8676;DHT22;4375;52.486;13.424;2023-08-17T13:47:12;26.10;99.90
8676;DHT22;4375;52.486;13.424;2023-08-17T13:49:38;26.20;99.90
8676;DHT22;4375;52.486;13.424;2023-08-17T13:52:04;26.10;99.90
8676;DHT22;4375;52.486;13.424;2023-08-17T13:54:30;26.20;99.90
8676;DHT22;4375;52.486;13.424;2023-08-17T13:56:55;26.10;99.90
8676;DHT22;4375;52.486;13.424;2023-08-17T13:59:21;26.00;99.90
8676;DHT22;4375;52.486;13.424;2023-08-17T14:01:49;25.90;99.90
8676;DHT22;4375;52.486;13.424;2023-08-17T14:04:14;25.90;99.90
8676;DHT22;4375;52.486;13.424;2023-08-17T14:06:40;26.00;99.90
8676;DHT22;4375;52.486;13.424;2023-08-17T14:09:06;26.00;99.90
8676;DHT22;4375;52.486;13.424;2023-08-17T14:11:32;26.10;99.90
8676;DHT22;4375;52.486;13.424;2023-08-17T14:13:58;26.10;99.90
8676;DHT22;4375;52.486;13.424;2023-08-17T14:16:23;26.20;99.90
8676;DHT22;4375;52.486;13.424;2023-08-17T14:18:49;26.20;99.90
8676;DHT22;4375;52.486;13.424;2023-08-17T14:21:15;26.10;99.90
8676;DHT22;4375;52.486;13.424;2023-08-17T14:23:41;26.20;99.90
8676;DHT22;4375;52.486;13.424;2023-08-17T14:26:06;26.30;99.90
8676;DHT22;4375;52.486;13.424;2023-08-17T14:28:32;26.30;99.90
8676;DHT22;4375;52.486;13.424;2023-08-17T14:30:58;26.50;99.90
8676;DHT22;4375;52.486;13.424;2023-08-17T14:33:23;26.60;99.90
8676;DHT22;4375;52.486;13.424;2023-08-17T14:35:49;26.50;99.90
8676;DHT22;4375;52.486;13.424;2023-08-17T14:38:16;26.50;99.90
8676;DHT22;4375;52.486;13.424;2023-08-17T14:40:47;26.40;99.90
8676;DHT22;4375;52.486;13.424;2023-08-17T14:43:12;26.40;99.90
8676;DHT22;4375;52.486;13.424;2023-08-17T14:45:42;26.30;99.90
8676;DHT22;4375;52.486;13.424;2023-08-17T14:48:08;26.20;99.90
8676;DHT22;4375;52.486;13.424;2023-08-17T14:50:35;26.20;99.90
8676;DHT22;4375;52.486;13.424;2023-08-17T14:53:01;26.20;99.90
8676;DHT22;4375;52.486;13.424;2023-08-17T14:55:34;26.10;99.90
8676;DHT22;4375;52.486;13.424;2023-08-17T14:58:00;26.20;99.90
8676;DHT22;4375;52.486;13.424;2023-08-17T15:00:26;26.40;99.90
8676;DHT22;4375;52.486;13.424;2023-08-17T15:02:56;26.50;99.90
8676;DHT22;4375;52.486;13.424;2023-08-17T15:05:23;26.60;99.90
8676;DHT22;4375;52.486;13.424;2023-08-17T15:07:49;26.70;99.90
8676;DHT22;4375;52.486;13.424;2023-08-17T15:10:14;26.70;99.90
8676;DHT22;4375;52.486;13.424;2023-08-17T15:12:40;26.60;99.90
8676;DHT22;4375;52.486;13.424;2023-08-17T15:15:07;26.60;99.90
8676;DHT22;4375;52.486;13.424;2023-08-17T15:17:32;26.50;99.90
8676;DHT22;4375;52.486;13.424;2023-08-17T15:19:59;26.30;99.90
8676;DHT22;4375;52.486;13.424;2023-08-17T15:22:26;26.30;99.90
8676;DHT22;4375;52.486;13.424;2023-08-17T15:24:51;26.50;99.90
8676;DHT22;4375;52.486;13.424;2023-08-17T15:27:17;26.50;99.90
8676;DHT22;4375;52.486;13.424;2023-08-17T15:29:43;26.40;99.90
8676;DHT22;4375;52.486;13.424;2023-08-17T15:32:09;26.40;99.90
8676;DHT22;4375;52.486;13.424;2023-08-17T15:34:35;26.50;99.90
8676;DHT22;4375;52.486;13.424;2023-08-17T15:37:01;26.60;99.90
8676;DHT22;4375;52.486;13.424;2023-08-17T15:39:26;26.70;99.90
8676;DHT22;4375;52.486;13.424;2023-08-17T15:41:52;26.80;99.90
8676;DHT22;4375;52.486;13.424;2023-08-17T15:44:18;26.80;99.90
8676;DHT22;4375;52.486;13.424;2023-08-17T15:46:44;26.70;99.90
8676;DHT22;4375;52.486;13.424;2023-08-17T15:49:10;26.70;99.90
8676;DHT22;4375;52.486;13.424;2023-08-17T15:51:37;26.60;99.90
8676;DHT22;4375;52.486;13.424;2023-08-17T15:54:04;26.50;99.90
8676;DHT22;4375;52.486;13.424;2023-08-17T15:56:29;26.50;99.90
8676;DHT22;4375;52.486;13.424;2023-08-17T15:58:55;26.50;99.90
8676;DHT22;4375;52.486;13.424;2023-08-17T16:01:24;26.50;99.90
8676;DHT22;4375;52.486;13.424;2023-08-17T16:03:49;26.50;99.90
8676;DHT22;4375;52.486;13.424;2023-08-17T16:06:15;26.50;99.90
8676;DHT22;4375;52.486;13.424;2023-08-17T16:08:42;26.50;99.90
8676;DHT22;4375;52.486;13.424;2023-08-17T16:11:08;26.40;99.90
8676;DHT22;4375;52.486;13.424;2023-08-17T16:13:34;26.40;99.90
8676;DHT22;4375;52.486;13.424;2023-08-17T16:15:59;26.30;99.90
8676;DHT22;4375;52.486;13.424;2023-08-17T16:18:25;26.40;99.90
8676;DHT22;4375;52.486;13.424;2023-08-17T16:20:54;26.40;99.90
8676;DHT22;4375;52.486;13.424;2023-08-17T16:23:19;26.40;99.90
8676;DHT22;4375;52.486;13.424;2023-08-17T16:25:45;26.30;99.90
8676;DHT22;4375;52.486;13.424;2023-08-17T16:28:14;26.40;99.90
8676;DHT22;4375;52.486;13.424;2023-08-17T16:30:40;26.40;99.90
8676;DHT22;4375;52.486;13.424;2023-08-17T16:33:07;26.30;99.90
8676;DHT22;4375;52.486;13.424;2023-08-17T16:35:33;26.30;99.90
8676;DHT22;4375;52.486;13.424;2023-08-17T16:38:04;26.30;99.90
8676;DHT22;4375;52.486;13.424;2023-08-17T16:40:30;26.30;99.90
8676;DHT22;4375;52.486;13.424;2023-08-17T16:42:56;26.20;99.90
8676;DHT22;4375;52.486;13.424;2023-08-17T16:45:21;26.20;99.90
8676;DHT22;4375;52.486;13.424;2023-08-17T16:47:47;26.20;99.90
8676;DHT22;4375;52.486;13.424;2023-08-17T16:50:12;26.20;99.90
8676;DHT22;4375;52.486;13.424;2023-08-17T16:52:38;26.10;99.90
8676;DHT22;4375;52.486;13.424;2023-08-17T16:55:04;26.00;99.90
8676;DHT22;4375;52.486;13.424;2023-08-17T16:57:33;26.00;99.90
8676;DHT22;4375;52.486;13.424;2023-08-17T16:59:59;25.90;99.90
8676;DHT22;4375;52.486;13.424;2023-08-17T17:02:25;25.90;99.90
8676;DHT22;4375;52.486;13.424;2023-08-17T17:04:50;25.80;99.90
8676;DHT22;4375;52.486;13.424;2023-08-17T17:07:16;25.80;99.90
8676;DHT22;4375;52.486;13.424;2023-08-17T17:09:43;25.70;99.90
8676;DHT22;4375;52.486;13.424;2023-08-17T17:12:09;25.70;99.90
8676;DHT22;4375;52.486;13.424;2023-08-17T17:14:35;25.70;99.90
8676;DHT22;4375;52.486;13.424;2023-08-17T17:17:01;25.70;99.90
8676;DHT22;4375;52.486;13.424;2023-08-17T17:19:27;25.70;99.90
8676;DHT22;4375;52.486;13.424;2023-08-17T17:21:52;25.60;99.90
8676;DHT22;4375;52.486;13.424;2023-08-17T17:24:18;25.60;99.90
8676;DHT22;4375;52.486;13.424;2023-08-17T17:26:43;25.60;99.90
8676;DHT22;4375;52.486;13.424;2023-08-17T17:29:09;25.50;99.90
8676;DHT22;4375;52.486;13.424;2023-08-17T17:31:36;25.60;99.90
8676;DHT22;4375;52.486;13.424;2023-08-17T17:34:02;25.60;99.90
8676;DHT22;4375;52.486;13.424;2023-08-17T17:36:33;25.50;99.90
8676;DHT22;4375;52.486;13.424;2023-08-17T17:38:59;25.60;99.90
8676;DHT22;4375;52.486;13.424;2023-08-17T17:41:25;25.50;99.90
8676;DHT22;4375;52.486;13.424;2023-08-17T17:43:50;25.50;99.90
8676;DHT22;4375;52.486;13.424;2023-08-17T17:46:16;25.50;99.90
8676;DHT22;4375;52.486;13.424;2023-08-17T17:48:44;25.50;99.90
8676;DHT22;4375;52.486;13.424;2023-08-17T17:51:10;25.40;99.90
8676;DHT22;4375;52.486;13.424;2023-08-17T17:53:36;25.40;99.90
8676;DHT22;4375;52.486;13.424;2023-08-17T17:56:01;25.30;99.90
8676;DHT22;4375;52.486;13.424;2023-08-17T17:58:27;25.40;99.90
8676;DHT22;4375;52.486;13.424;2023-08-17T18:00:54;25.40;99.90
8676;DHT22;4375;52.486;13.424;2023-08-17T18:03:20;25.30;99.90
8676;DHT22;4375;52.486;13.424;2023-08-17T18:05:47;25.20;99.90
8676;DHT22;4375;52.486;13.424;2023-08-17T18:08:13;25.30;99.90
8676;DHT22;4375;52.486;13.424;2023-08-17T18:10:40;25.20;99.90
8676;DHT22;4375;52.486;13.424;2023-08-17T18:13:06;25.20;99.90
8676;DHT22;4375;52.486;13.424;2023-08-17T18:15:33;25.10;99.90
8676;DHT22;4375;52.486;13.424;2023-08-17T18:18:00;25.00;99.90
8676;DHT22;4375;52.486;13.424;2023-08-17T18:20:25;25.00;99.90
8676;DHT22;4375;52.486;13.424;2023-08-17T18:22:51;25.00;99.90
8676;DHT22;4375;52.486;13.424;2023-08-17T18:25:17;25.00;99.90
8676;DHT22;4375;52.486;13.424;2023-08-17T18:27:43;25.00;99.90
8676;DHT22;4375;52.486;13.424;2023-08-17T18:30:09;25.00;99.90
8676;DHT22;4375;52.486;13.424;2023-08-17T18:32:38;25.00;99.90
8676;DHT22;4375;52.486;13.424;2023-08-17T18:35:05;25.00;99.90
8676;DHT22;4375;52.486;13.424;2023-08-17T18:37:31;25.00;99.90
8676;DHT22;4375;52.486;13.424;2023-08-17T18:39:57;24.90;99.90
8676;DHT22;4375;52.486;13.424;2023-08-17T18:42:23;24.90;99.90
8676;DHT22;4375;52.486;13.424;2023-08-17T18:44:49;24.80;99.90
8676;DHT22;4375;52.486;13.424;2023-08-17T18:47:15;24.80;99.90
8676;DHT22;4375;52.486;13.424;2023-08-17T18:49:40;24.80;99.90
8676;DHT22;4375;52.486;13.424;2023-08-17T18:52:06;24.60;99.90
8676;DHT22;4375;52.486;13.424;2023-08-17T18:54:33;24.50;99.90
8676;DHT22;4375;52.486;13.424;2023-08-17T18:56:59;24.40;99.90
8676;DHT22;4375;52.486;13.424;2023-08-17T18:59:25;24.40;99.90
8676;DHT22;4375;52.486;13.424;2023-08-17T19:01:51;24.30;99.90
8676;DHT22;4375;52.486;13.424;2023-08-17T19:04:16;24.20;99.90
8676;DHT22;4375;52.486;13.424;2023-08-17T19:06:42;24.10;99.90
8676;DHT22;4375;52.486;13.424;2023-08-17T19:09:07;24.10;99.90
8676;DHT22;4375;52.486;13.424;2023-08-17T19:11:33;24.00;99.90
8676;DHT22;4375;52.486;13.424;2023-08-17T19:13:59;24.00;99.90
8676;DHT22;4375;52.486;13.424;2023-08-17T19:16:27;23.90;99.90
8676;DHT22;4375;52.486;13.424;2023-08-17T19:18:54;23.90;99.90
8676;DHT22;4375;52.486;13.424;2023-08-17T19:21:20;23.80;99.90
8676;DHT22;4375;52.486;13.424;2023-08-17T19:23:45;23.80;99.90
8676;DHT22;4375;52.486;13.424;2023-08-17T19:26:11;23.80;99.90
8676;DHT22;4375;52.486;13.424;2023-08-17T19:28:37;23.80;99.90
8676;DHT22;4375;52.486;13.424;2023-08-17T19:31:02;23.80;99.90
8676;DHT22;4375;52.486;13.424;2023-08-17T19:33:28;23.70;99.90
8676;DHT22;4375;52.486;13.424;2023-08-17T19:35:54;23.70;99.90
8676;DHT22;4375;52.486;13.424;2023-08-17T19:38:19;23.70;99.90
8676;DHT22;4375;52.486;13.424;2023-08-17T19:40:47;23.60;99.90
8676;DHT22;4375;52.486;13.424;2023-08-17T19:43:13;23.60;99.90
8676;DHT22;4375;52.486;13.424;2023-08-17T19:45:38;23.50;99.90
8676;DHT22;4375;52.486;13.424;2023-08-17T19:48:04;23.50;99.90
8676;DHT22;4375;52.486;13.424;2023-08-17T19:50:30;23.40;99.90
8676;DHT22;4375;52.486;13.424;2023-08-17T19:52:55;23.40;99.90
8676;DHT22;4375;52.486;13.424;2023-08-17T19:55:21;23.30;99.90
8676;DHT22;4375;52.486;13.424;2023-08-17T19:57:47;23.30;99.90
8676;DHT22;4375;52.486;13.424;2023-08-17T20:00:13;23.20;99.90
8676;DHT22;4375;52.486;13.424;2023-08-17T20:02:39;23.10;99.90
8676;DHT22;4375;52.486;13.424;2023-08-17T20:05:05;23.10;99.90
8676;DHT22;4375;52.486;13.424;2023-08-17T20:07:32;23.10;99.90
8676;DHT22;4375;52.486;13.424;2023-08-17T20:09:58;23.10;99.90
8676;DHT22;4375;52.486;13.424;2023-08-17T20:12:27;23.00;99.90
8676;DHT22;4375;52.486;13.424;2023-08-17T20:14:52;23.00;99.90
8676;DHT22;4375;52.486;13.424;2023-08-17T20:17:18;23.00;99.90
8676;DHT22;4375;52.486;13.424;2023-08-17T20:19:44;22.90;99.90
8676;DHT22;4375;52.486;13.424;2023-08-17T20:22:10;22.80;99.90
8676;DHT22;4375;52.486;13.424;2023-08-17T20:24:36;22.70;99.90
8676;DHT22;4375;52.486;13.424;2023-08-17T20:27:01;22.70;99.90
8676;DHT22;4375;52.486;13.424;2023-08-17T20:29:28;22.60;99.90
8676;DHT22;4375;52.486;13.424;2023-08-17T20:31:54;22.60;99.90
8676;DHT22;4375;52.486;13.424;2023-08-17T20:34:19;22.60;99.90
8676;DHT22;4375;52.486;13.424;2023-08-17T20:36:45;22.60;99.90
8676;DHT22;4375;52.486;13.424;2023-08-17T20:39:11;22.60;99.90
8676;DHT22;4375;52.486;13.424;2023-08-17T20:41:37;22.60;99.90
8676;DHT22;4375;52.486;13.424;2023-08-17T20:44:03;22.50;99.90
8676;DHT22;4375;52.486;13.424;2023-08-17T20:46:29;22.60;99.90
8676;DHT22;4375;52.486;13.424;2023-08-17T20:48:58;22.60;99.90
8676;DHT22;4375;52.486;13.424;2023-08-17T20:51:24;22.60;99.90
8676;DHT22;4375;52.486;13.424;2023-08-17T20:53:51;22.70;99.90
8676;DHT22;4375;52.486;13.424;2023-08-17T20:56:18;22.70;99.90
8676;DHT22;4375;52.486;13.424;2023-08-17T20:58:44;22.70;99.90
8676;DHT22;4375;52.486;13.424;2023-08-17T21:01:09;22.70;99.90
8676;DHT22;4375;52.486;13.424;2023-08-17T21:03:35;22.70;99.90
8676;DHT22;4375;52.486;13.424;2023-08-17T21:06:08;22.70;99.90
8676;DHT22;4375;52.486;13.424;2023-08-17T21:08:34;22.80;99.90
8676;DHT22;4375;52.486;13.424;2023-08-17T21:11:01;22.80;99.90
8676;DHT22;4375;52.486;13.424;2023-08-17T21:13:26;22.50;99.90
8676;DHT22;4375;52.486;13.424;2023-08-17T21:16:08;22.40;99.90
8676;DHT22;4375;52.486;13.424;2023-08-17T21:18:34;22.30;99.90
8676;DHT22;4375;52.486;13.424;2023-08-17T21:21:00;22.20;99.90
8676;DHT22;4375;52.486;13.424;2023-08-17T21:23:26;22.30;99.90
8676;DHT22;4375;52.486;13.424;2023-08-17T21:25:52;22.20;99.90
8676;DHT22;4375;52.486;13.424;2023-08-17T21:28:18;22.20;99.90
8676;DHT22;4375;52.486;13.424;2023-08-17T21:30:44;22.20;99.90
8676;DHT22;4375;52.486;13.424;2023-08-17T21:33:09;22.30;99.90
8676;DHT22;4375;52.486;13.424;2023-08-17T21:35:35;22.30;99.90
8676;DHT22;4375;52.486;13.424;2023-08-17T21:38:04;22.30;99.90
8676;DHT22;4375;52.486;13.424;2023-08-17T21:40:30;22.30;99.90
8676;DHT22;4375;52.486;13.424;2023-08-17T21:42:55;22.20;99.90
8676;DHT22;4375;52.486;13.424;2023-08-17T21:45:21;22.20;99.90
8676;DHT22;4375;52.486;13.424;2023-08-17T21:47:50;22.10;99.90
8676;DHT22;4375;52.486;13.424;2023-08-17T21:50:17;22.10;99.90
8676;DHT22;4375;52.486;13.424;2023-08-17T21:52:42;22.20;99.90
8676;DHT22;4375;52.486;13.424;2023-08-17T21:55:08;22.20;99.90
8676;DHT22;4375;52.486;13.424;2023-08-17T21:57:34;22.20;99.90
8676;DHT22;4375;52.486;13.424;2023-08-17T21:59:59;22.20;99.90
8676;DHT22;4375;52.486;13.424;2023-08-17T22:02:25;22.10;99.90
8676;DHT22;4375;52.486;13.424;2023-08-17T22:04:51;22.20;99.90
8676;DHT22;4375;52.486;13.424;2023-08-17T22:07:16;22.20;99.90
8676;DHT22;4375;52.486;13.424;2023-08-17T22:09:42;22.10;99.90
8676;DHT22;4375;52.486;13.424;2023-08-17T22:12:08;22.20;99.90
8676;DHT22;4375;52.486;13.424;2023-08-17T22:14:33;22.10;99.90
8676;DHT22;4375;52.486;13.424;2023-08-17T22:16:59;22.10;99.90
8676;DHT22;4375;52.486;13.424;2023-08-17T22:19:25;22.00;99.90
8676;DHT22;4375;52.486;13.424;2023-08-17T22:21:51;21.90;99.90
8676;DHT22;4375;52.486;13.424;2023-08-17T22:24:17;21.90;99.90
8676;DHT22;4375;52.486;13.424;2023-08-17T22:26:42;22.00;99.90
8676;DHT22;4375;52.486;13.424;2023-08-17T22:29:08;22.00;99.90
8676;DHT22;4375;52.486;13.424;2023-08-17T22:31:34;22.00;99.90
8676;DHT22;4375;52.486;13.424;2023-08-17T22:34:00;22.00;99.90
8676;DHT22;4375;52.486;13.424;2023-08-17T22:36:27;22.00;99.90
8676;DHT22;4375;52.486;13.424;2023-08-17T22:38:52;22.10;99.90
8676;DHT22;4375;52.486;13.424;2023-08-17T22:41:18;22.20;99.90
8676;DHT22;4375;52.486;13.424;2023-08-17T22:43:44;22.10;99.90
8676;DHT22;4375;52.486;13.424;2023-08-17T22:46:09;22.00;99.90
8676;DHT22;4375;52.486;13.424;2023-08-17T22:48:35;21.90;99.90
8676;DHT22;4375;52.486;13.424;2023-08-17T22:51:01;22.00;99.90
8676;DHT22;4375;52.486;13.424;2023-08-17T22:53:26;22.00;99.90
8676;DHT22;4375;52.486;13.424;2023-08-17T22:55:52;22.00;99.90
8676;DHT22;4375;52.486;13.424;2023-08-17T22:58:18;22.00;99.90
8676;DHT22;4375;52.486;13.424;2023-08-17T23:00:43;22.00;99.90
8676;DHT22;4375;52.486;13.424;2023-08-17T23:03:09;22.00;99.90
8676;DHT22;4375;52.486;13.424;2023-08-17T23:05:35;21.90;99.90
8676;DHT22;4375;52.486;13.424;2023-08-17T23:08:01;21.80;99.90
8676;DHT22;4375;52.486;13.424;2023-08-17T23:10:27;21.90;99.90
8676;DHT22;4375;52.486;13.424;2023-08-17T23:12:53;21.90;99.90
8676;DHT22;4375;52.486;13.424;2023-08-17T23:15:18;21.90;99.90
8676;DHT22;4375;52.486;13.424;2023-08-17T23:17:44;21.80;99.90
8676;DHT22;4375;52.486;13.424;2023-08-17T23:20:11;21.80;99.90
8676;DHT22;4375;52.486;13.424;2023-08-17T23:22:37;21.70;99.90
8676;DHT22;4375;52.486;13.424;2023-08-17T23:25:03;21.70;99.90
8676;DHT22;4375;52.486;13.424;2023-08-17T23:27:29;21.60;99.90
8676;DHT22;4375;52.486;13.424;2023-08-17T23:29:55;21.60;99.90
8676;DHT22;4375;52.486;13.424;2023-08-17T23:32:20;21.60;99.90
8676;DHT22;4375;52.486;13.424;2023-08-17T23:34:46;21.60;99.90
8676;DHT22;4375;52.486;13.424;2023-08-17T23:37:12;21.60;99.90
8676;DHT22;4375;52.486;13.424;2023-08-17T23:39:37;21.60;99.90
8676;DHT22;4375;52.486;13.424;2023-08-17T23:42:03;21.60;99.90
8676;DHT22;4375;52.486;13.424;2023-08-17T23:44:29;21.60;99.90
8676;DHT22;4375;52.486;13.424;2023-08-17T23:46:55;21.60;99.90
8676;DHT22;4375;52.486;13.424;2023-08-17T23:49:20;21.70;99.90
8676;DHT22;4375;52.486;13.424;2023-08-17T23:51:46;21.60;99.90
8676;DHT22;4375;52.486;13.424;2023-08-17T23:54:12;21.70;99.90
8676;DHT22;4375;52.486;13.424;2023-08-17T23:56:37;21.70;99.90
8676;DHT22;4375;52.486;13.424;2023-08-17T23:59:03;21.70;99.90
